sensor_id;sensor_type;location;lat;lon;timestamp;P1;durP1;ratioP1;P2;durP2;ratioP2
11835;SDS011;5977;51.972;7.640;2023-07-22T00:01:52;160.83;;;51.77;;
11835;SDS011;5977;51.972;7.640;2023-07-22T00:04:20;161.00;;;52.17;;
11835;SDS011;5977;51.972;7.640;2023-07-22T00:06:50;161.47;;;52.10;;
11835;SDS011;5977;51.972;7.640;2023-07-22T00:09:18;161.87;;;52.20;;
11835;SDS011;5977;51.972;7.640;2023-07-22T00:11:46;162.00;;;52.47;;
11835;SDS011;5977;51.972;7.640;2023-07-22T00:14:17;161.07;;;51.93;;
11835;SDS011;5977;51.972;7.640;2023-07-22T00:16:45;161.13;;;52.07;;
11835;SDS011;5977;51.972;7.640;2023-07-22T00:19:14;161.47;;;52.33;;
11835;SDS011;5977;51.972;7.640;2023-07-22T00:21:44;161.40;;;52.40;;
11835;SDS011;5977;51.972;7.640;2023-07-22T00:24:14;161.27;;;52.10;;
11835;SDS011;5977;51.972;7.640;2023-07-22T00:26:42;161.73;;;52.63;;
11835;SDS011;5977;51.972;7.640;2023-07-22T00:29:10;161.23;;;52.47;;
11835;SDS011;5977;51.972;7.640;2023-07-22T00:31:38;161.13;;;52.00;;
11835;SDS011;5977;51.972;7.640;2023-07-22T00:34:07;161.30;;;51.97;;
11835;SDS011;5977;51.972;7.640;2023-07-22T00:36:35;159.93;;;51.47;;
11835;SDS011;5977;51.972;7.640;2023-07-22T00:39:04;161.27;;;52.07;;
11835;SDS011;5977;51.972;7.640;2023-07-22T00:41:33;160.50;;;51.90;;
11835;SDS011;5977;51.972;7.640;2023-07-22T00:44:01;160.83;;;52.03;;
11835;SDS011;5977;51.972;7.640;2023-07-22T00:46:29;161.07;;;51.90;;
11835;SDS011;5977;51.972;7.640;2023-07-22T00:48:57;160.90;;;51.93;;
11835;SDS011;5977;51.972;7.640;2023-07-22T00:51:25;160.50;;;51.70;;
11835;SDS011;5977;51.972;7.640;2023-07-22T00:53:53;160.80;;;51.73;;
11835;SDS011;5977;51.972;7.640;2023-07-22T00:56:22;161.50;;;51.90;;
11835;SDS011;5977;51.972;7.640;2023-07-22T00:58:53;161.07;;;51.90;;
11835;SDS011;5977;51.972;7.640;2023-07-22T01:01:21;160.60;;;51.47;;
11835;SDS011;5977;51.972;7.640;2023-07-22T01:03:49;160.57;;;51.60;;
11835;SDS011;5977;51.972;7.640;2023-07-22T01:06:17;160.37;;;51.30;;
11835;SDS011;5977;51.972;7.640;2023-07-22T01:08:46;160.87;;;52.23;;
11835;SDS011;5977;51.972;7.640;2023-07-22T01:11:14;161.27;;;52.47;;
11835;SDS011;5977;51.972;7.640;2023-07-22T01:13:42;161.17;;;52.33;;
11835;SDS011;5977;51.972;7.640;2023-07-22T01:16:11;161.20;;;52.07;;
11835;SDS011;5977;51.972;7.640;2023-07-22T01:18:39;161.20;;;52.37;;
11835;SDS011;5977;51.972;7.640;2023-07-22T01:21:08;161.57;;;52.30;;
11835;SDS011;5977;51.972;7.640;2023-07-22T01:23:38;161.07;;;52.37;;
11835;SDS011;5977;51.972;7.640;2023-07-22T01:26:07;160.87;;;51.83;;
11835;SDS011;5977;51.972;7.640;2023-07-22T01:28:35;161.57;;;52.50;;
11835;SDS011;5977;51.972;7.640;2023-07-22T01:31:03;161.10;;;51.97;;
11835;SDS011;5977;51.972;7.640;2023-07-22T01:33:32;160.73;;;52.30;;
11835;SDS011;5977;51.972;7.640;2023-07-22T01:36:00;160.77;;;52.10;;
11835;SDS011;5977;51.972;7.640;2023-07-22T01:38:29;160.97;;;52.03;;
11835;SDS011;5977;51.972;7.640;2023-07-22T01:40:58;161.43;;;52.40;;
11835;SDS011;5977;51.972;7.640;2023-07-22T01:43:26;161.50;;;52.30;;
11835;SDS011;5977;51.972;7.640;2023-07-22T01:45:54;160.40;;;51.70;;
11835;SDS011;5977;51.972;7.640;2023-07-22T01:48:22;160.77;;;51.93;;
11835;SDS011;5977;51.972;7.640;2023-07-22T01:50:51;161.23;;;51.90;;
11835;SDS011;5977;51.972;7.640;2023-07-22T01:53:19;160.57;;;51.87;;
11835;SDS011;5977;51.972;7.640;2023-07-22T01:55:48;160.47;;;51.87;;
11835;SDS011;5977;51.972;7.640;2023-07-22T01:58:17;161.17;;;52.37;;
11835;SDS011;5977;51.972;7.640;2023-07-22T02:00:48;159.87;;;51.23;;
11835;SDS011;5977;51.972;7.640;2023-07-22T02:03:17;161.27;;;51.93;;
11835;SDS011;5977;51.972;7.640;2023-07-22T02:05:45;161.37;;;52.10;;
11835;SDS011;5977;51.972;7.640;2023-07-22T02:08:13;161.57;;;52.43;;
11835;SDS011;5977;51.972;7.640;2023-07-22T02:10:41;160.97;;;52.13;;
11835;SDS011;5977;51.972;7.640;2023-07-22T02:13:09;161.03;;;51.83;;
11835;SDS011;5977;51.972;7.640;2023-07-22T02:15:39;161.00;;;52.20;;
11835;SDS011;5977;51.972;7.640;2023-07-22T02:18:09;162.20;;;52.53;;
11835;SDS011;5977;51.972;7.640;2023-07-22T02:20:37;160.73;;;51.47;;
11835;SDS011;5977;51.972;7.640;2023-07-22T02:23:05;161.77;;;52.37;;
11835;SDS011;5977;51.972;7.640;2023-07-22T02:25:35;160.87;;;51.90;;
11835;SDS011;5977;51.972;7.640;2023-07-22T02:28:04;160.30;;;51.27;;
11835;SDS011;5977;51.972;7.640;2023-07-22T02:30:33;160.20;;;51.47;;
11835;SDS011;5977;51.972;7.640;2023-07-22T02:33:03;160.43;;;52.00;;
11835;SDS011;5977;51.972;7.640;2023-07-22T02:35:32;160.60;;;51.53;;
11835;SDS011;5977;51.972;7.640;2023-07-22T02:38:00;160.07;;;51.20;;
11835;SDS011;5977;51.972;7.640;2023-07-22T02:40:29;159.90;;;51.17;;
11835;SDS011;5977;51.972;7.640;2023-07-22T02:42:56;160.70;;;51.90;;
11835;SDS011;5977;51.972;7.640;2023-07-22T02:45:24;161.33;;;52.07;;
11835;SDS011;5977;51.972;7.640;2023-07-22T02:47:53;160.70;;;51.80;;
11835;SDS011;5977;51.972;7.640;2023-07-22T02:50:22;160.57;;;51.67;;
11835;SDS011;5977;51.972;7.640;2023-07-22T02:52:50;160.00;;;51.13;;
11835;SDS011;5977;51.972;7.640;2023-07-22T02:55:18;160.90;;;51.80;;
11835;SDS011;5977;51.972;7.640;2023-07-22T02:57:46;161.10;;;51.60;;
11835;SDS011;5977;51.972;7.640;2023-07-22T03:00:15;161.70;;;52.23;;
11835;SDS011;5977;51.972;7.640;2023-07-22T03:02:49;161.93;;;52.30;;
11835;SDS011;5977;51.972;7.640;2023-07-22T03:05:18;160.57;;;51.70;;
11835;SDS011;5977;51.972;7.640;2023-07-22T03:07:48;160.83;;;52.07;;
11835;SDS011;5977;51.972;7.640;2023-07-22T03:10:16;160.80;;;51.60;;
11835;SDS011;5977;51.972;7.640;2023-07-22T03:12:44;161.20;;;51.77;;
11835;SDS011;5977;51.972;7.640;2023-07-22T03:15:12;161.30;;;51.93;;
11835;SDS011;5977;51.972;7.640;2023-07-22T03:17:40;159.60;;;50.63;;
11835;SDS011;5977;51.972;7.640;2023-07-22T03:20:09;160.77;;;51.87;;
11835;SDS011;5977;51.972;7.640;2023-07-22T03:22:41;160.10;;;51.17;;
11835;SDS011;5977;51.972;7.640;2023-07-22T03:25:10;160.33;;;51.53;;
11835;SDS011;5977;51.972;7.640;2023-07-22T03:27:39;159.93;;;51.17;;
11835;SDS011;5977;51.972;7.640;2023-07-22T03:30:08;159.87;;;50.93;;
11835;SDS011;5977;51.972;7.640;2023-07-22T03:32:41;160.87;;;51.47;;
11835;SDS011;5977;51.972;7.640;2023-07-22T03:35:09;160.13;;;51.03;;
11835;SDS011;5977;51.972;7.640;2023-07-22T03:37:38;160.97;;;51.87;;
11835;SDS011;5977;51.972;7.640;2023-07-22T03:40:07;161.30;;;51.77;;
11835;SDS011;5977;51.972;7.640;2023-07-22T03:42:42;160.60;;;51.37;;
11835;SDS011;5977;51.972;7.640;2023-07-22T03:45:10;160.40;;;51.30;;
11835;SDS011;5977;51.972;7.640;2023-07-22T03:47:38;161.13;;;51.80;;
11835;SDS011;5977;51.972;7.640;2023-07-22T03:50:07;159.43;;;50.83;;
11835;SDS011;5977;51.972;7.640;2023-07-22T03:52:35;160.93;;;51.53;;
11835;SDS011;5977;51.972;7.640;2023-07-22T03:55:03;159.83;;;50.97;;
11835;SDS011;5977;51.972;7.640;2023-07-22T03:57:32;160.93;;;51.63;;
11835;SDS011;5977;51.972;7.640;2023-07-22T04:00:04;159.40;;;50.97;;
11835;SDS011;5977;51.972;7.640;2023-07-22T04:02:38;160.93;;;51.43;;
11835;SDS011;5977;51.972;7.640;2023-07-22T04:05:06;160.43;;;51.53;;
11835;SDS011;5977;51.972;7.640;2023-07-22T04:07:35;160.47;;;51.53;;
11835;SDS011;5977;51.972;7.640;2023-07-22T04:10:03;159.80;;;50.97;;
11835;SDS011;5977;51.972;7.640;2023-07-22T04:12:32;160.10;;;51.33;;
11835;SDS011;5977;51.972;7.640;2023-07-22T04:15:00;160.87;;;51.53;;
11835;SDS011;5977;51.972;7.640;2023-07-22T04:17:29;160.63;;;51.77;;
11835;SDS011;5977;51.972;7.640;2023-07-22T04:19:57;160.73;;;51.33;;
11835;SDS011;5977;51.972;7.640;2023-07-22T04:22:25;160.97;;;51.60;;
11835;SDS011;5977;51.972;7.640;2023-07-22T04:24:53;160.40;;;51.60;;
11835;SDS011;5977;51.972;7.640;2023-07-22T04:27:21;160.60;;;51.67;;
11835;SDS011;5977;51.972;7.640;2023-07-22T04:29:49;160.03;;;51.50;;
11835;SDS011;5977;51.972;7.640;2023-07-22T04:32:17;160.90;;;51.70;;
11835;SDS011;5977;51.972;7.640;2023-07-22T04:34:47;160.37;;;51.60;;
11835;SDS011;5977;51.972;7.640;2023-07-22T04:37:15;160.60;;;51.70;;
11835;SDS011;5977;51.972;7.640;2023-07-22T04:39:46;160.83;;;51.80;;
11835;SDS011;5977;51.972;7.640;2023-07-22T04:42:15;160.80;;;51.90;;
11835;SDS011;5977;51.972;7.640;2023-07-22T04:44:44;161.43;;;51.97;;
11835;SDS011;5977;51.972;7.640;2023-07-22T04:47:12;161.13;;;51.77;;
11835;SDS011;5977;51.972;7.640;2023-07-22T04:49:39;160.07;;;51.40;;
11835;SDS011;5977;51.972;7.640;2023-07-22T04:52:09;160.73;;;51.93;;
11835;SDS011;5977;51.972;7.640;2023-07-22T04:54:37;160.73;;;51.60;;
11835;SDS011;5977;51.972;7.640;2023-07-22T04:57:05;160.43;;;51.67;;
11835;SDS011;5977;51.972;7.640;2023-07-22T04:59:38;161.10;;;52.03;;
11835;SDS011;5977;51.972;7.640;2023-07-22T05:02:05;160.70;;;51.53;;
11835;SDS011;5977;51.972;7.640;2023-07-22T05:04:33;160.17;;;51.33;;
11835;SDS011;5977;51.972;7.640;2023-07-22T05:07:01;160.43;;;51.57;;
11835;SDS011;5977;51.972;7.640;2023-07-22T05:09:31;160.70;;;51.70;;
11835;SDS011;5977;51.972;7.640;2023-07-22T05:11:59;161.07;;;52.03;;
11835;SDS011;5977;51.972;7.640;2023-07-22T05:14:52;160.50;;;51.53;;
11835;SDS011;5977;51.972;7.640;2023-07-22T05:17:23;160.03;;;51.43;;
11835;SDS011;5977;51.972;7.640;2023-07-22T05:19:52;160.70;;;52.13;;
11835;SDS011;5977;51.972;7.640;2023-07-22T05:22:20;160.10;;;51.53;;
11835;SDS011;5977;51.972;7.640;2023-07-22T05:24:49;160.20;;;51.60;;
11835;SDS011;5977;51.972;7.640;2023-07-22T05:27:18;160.47;;;51.67;;
11835;SDS011;5977;51.972;7.640;2023-07-22T05:29:47;160.33;;;51.57;;
11835;SDS011;5977;51.972;7.640;2023-07-22T05:32:15;160.93;;;52.00;;
11835;SDS011;5977;51.972;7.640;2023-07-22T05:34:59;160.43;;;51.63;;
11835;SDS011;5977;51.972;7.640;2023-07-22T05:37:28;160.30;;;51.43;;
11835;SDS011;5977;51.972;7.640;2023-07-22T05:40:18;160.93;;;52.03;;
11835;SDS011;5977;51.972;7.640;2023-07-22T05:43:01;160.07;;;51.50;;
11835;SDS011;5977;51.972;7.640;2023-07-22T05:45:34;161.03;;;51.87;;
11835;SDS011;5977;51.972;7.640;2023-07-22T05:48:12;160.43;;;51.63;;
11835;SDS011;5977;51.972;7.640;2023-07-22T05:50:47;160.77;;;51.73;;
11835;SDS011;5977;51.972;7.640;2023-07-22T05:53:26;159.57;;;51.23;;
11835;SDS011;5977;51.972;7.640;2023-07-22T05:55:55;160.70;;;52.43;;
11835;SDS011;5977;51.972;7.640;2023-07-22T05:58:23;160.33;;;51.97;;
11835;SDS011;5977;51.972;7.640;2023-07-22T06:00:52;160.53;;;52.43;;
11835;SDS011;5977;51.972;7.640;2023-07-22T06:03:21;159.63;;;51.60;;
11835;SDS011;5977;51.972;7.640;2023-07-22T06:05:49;160.73;;;52.27;;
11835;SDS011;5977;51.972;7.640;2023-07-22T06:08:20;160.40;;;51.97;;
11835;SDS011;5977;51.972;7.640;2023-07-22T06:10:50;160.90;;;51.90;;
11835;SDS011;5977;51.972;7.640;2023-07-22T06:13:24;160.53;;;52.10;;
11835;SDS011;5977;51.972;7.640;2023-07-22T06:15:56;160.70;;;52.40;;
11835;SDS011;5977;51.972;7.640;2023-07-22T06:18:31;160.87;;;52.30;;
11835;SDS011;5977;51.972;7.640;2023-07-22T06:21:00;161.50;;;52.97;;
11835;SDS011;5977;51.972;7.640;2023-07-22T06:23:29;160.60;;;52.40;;
11835;SDS011;5977;51.972;7.640;2023-07-22T06:25:57;161.17;;;52.80;;
11835;SDS011;5977;51.972;7.640;2023-07-22T06:28:29;160.87;;;52.70;;
11835;SDS011;5977;51.972;7.640;2023-07-22T06:30:57;160.83;;;52.93;;
11835;SDS011;5977;51.972;7.640;2023-07-22T06:33:26;161.20;;;53.17;;
11835;SDS011;5977;51.972;7.640;2023-07-22T06:36:00;160.87;;;52.47;;
11835;SDS011;5977;51.972;7.640;2023-07-22T06:38:54;160.77;;;52.77;;
11835;SDS011;5977;51.972;7.640;2023-07-22T06:41:28;160.37;;;52.63;;
11835;SDS011;5977;51.972;7.640;2023-07-22T06:44:10;161.03;;;52.70;;
11835;SDS011;5977;51.972;7.640;2023-07-22T06:46:53;160.97;;;52.90;;
11835;SDS011;5977;51.972;7.640;2023-07-22T06:49:23;161.03;;;52.77;;
11835;SDS011;5977;51.972;7.640;2023-07-22T06:51:52;161.17;;;53.27;;
11835;SDS011;5977;51.972;7.640;2023-07-22T06:54:32;161.00;;;52.73;;
11835;SDS011;5977;51.972;7.640;2023-07-22T06:57:06;160.73;;;52.53;;
11835;SDS011;5977;51.972;7.640;2023-07-22T06:59:43;160.63;;;52.63;;
11835;SDS011;5977;51.972;7.640;2023-07-22T07:02:12;161.57;;;53.20;;
11835;SDS011;5977;51.972;7.640;2023-07-22T07:04:44;160.93;;;53.13;;
11835;SDS011;5977;51.972;7.640;2023-07-22T07:07:22;161.07;;;53.20;;
11835;SDS011;5977;51.972;7.640;2023-07-22T07:09:50;160.47;;;52.60;;
11835;SDS011;5977;51.972;7.640;2023-07-22T07:12:18;160.67;;;53.20;;
11835;SDS011;5977;51.972;7.640;2023-07-22T07:14:49;161.63;;;53.37;;
11835;SDS011;5977;51.972;7.640;2023-07-22T07:17:17;161.23;;;53.10;;
11835;SDS011;5977;51.972;7.640;2023-07-22T07:19:45;160.73;;;52.53;;
11835;SDS011;5977;51.972;7.640;2023-07-22T07:22:13;161.13;;;53.03;;
11835;SDS011;5977;51.972;7.640;2023-07-22T07:24:41;161.97;;;53.60;;
11835;SDS011;5977;51.972;7.640;2023-07-22T07:27:09;161.17;;;53.37;;
11835;SDS011;5977;51.972;7.640;2023-07-22T07:29:37;161.57;;;53.40;;
11835;SDS011;5977;51.972;7.640;2023-07-22T07:32:20;161.07;;;53.30;;
11835;SDS011;5977;51.972;7.640;2023-07-22T07:34:50;161.50;;;53.53;;
11835;SDS011;5977;51.972;7.640;2023-07-22T07:37:18;161.07;;;53.03;;
11835;SDS011;5977;51.972;7.640;2023-07-22T07:39:46;159.70;;;52.43;;
11835;SDS011;5977;51.972;7.640;2023-07-22T07:42:14;161.80;;;53.70;;
11835;SDS011;5977;51.972;7.640;2023-07-22T07:44:42;161.07;;;53.23;;
11835;SDS011;5977;51.972;7.640;2023-07-22T07:47:10;160.67;;;52.80;;
11835;SDS011;5977;51.972;7.640;2023-07-22T07:49:39;161.20;;;53.20;;
11835;SDS011;5977;51.972;7.640;2023-07-22T07:52:07;161.20;;;53.20;;
11835;SDS011;5977;51.972;7.640;2023-07-22T07:54:35;160.37;;;52.93;;
11835;SDS011;5977;51.972;7.640;2023-07-22T07:57:03;161.13;;;53.30;;
11835;SDS011;5977;51.972;7.640;2023-07-22T07:59:33;161.47;;;53.40;;
11835;SDS011;5977;51.972;7.640;2023-07-22T08:02:05;160.60;;;53.27;;
11835;SDS011;5977;51.972;7.640;2023-07-22T08:04:35;160.80;;;53.63;;
11835;SDS011;5977;51.972;7.640;2023-07-22T08:07:05;161.20;;;53.30;;
11835;SDS011;5977;51.972;7.640;2023-07-22T08:09:34;160.87;;;53.47;;
11835;SDS011;5977;51.972;7.640;2023-07-22T08:12:02;160.80;;;53.70;;
11835;SDS011;5977;51.972;7.640;2023-07-22T08:14:30;160.47;;;53.80;;
11835;SDS011;5977;51.972;7.640;2023-07-22T08:16:58;160.87;;;54.17;;
11835;SDS011;5977;51.972;7.640;2023-07-22T08:19:26;161.47;;;54.17;;
11835;SDS011;5977;51.972;7.640;2023-07-22T08:21:54;160.50;;;53.77;;
11835;SDS011;5977;51.972;7.640;2023-07-22T08:24:24;159.60;;;53.77;;
11835;SDS011;5977;51.972;7.640;2023-07-22T08:26:52;161.20;;;54.30;;
11835;SDS011;5977;51.972;7.640;2023-07-22T08:29:21;160.93;;;54.70;;
11835;SDS011;5977;51.972;7.640;2023-07-22T08:31:49;161.07;;;54.77;;
11835;SDS011;5977;51.972;7.640;2023-07-22T08:34:17;161.03;;;54.80;;
11835;SDS011;5977;51.972;7.640;2023-07-22T08:36:45;160.13;;;54.10;;
11835;SDS011;5977;51.972;7.640;2023-07-22T08:39:13;161.80;;;55.20;;
11835;SDS011;5977;51.972;7.640;2023-07-22T08:41:43;162.03;;;55.40;;
11835;SDS011;5977;51.972;7.640;2023-07-22T08:44:18;162.13;;;55.17;;
11835;SDS011;5977;51.972;7.640;2023-07-22T08:46:51;160.80;;;54.90;;
11835;SDS011;5977;51.972;7.640;2023-07-22T08:49:23;160.97;;;55.07;;
11835;SDS011;5977;51.972;7.640;2023-07-22T08:51:52;161.50;;;55.60;;
11835;SDS011;5977;51.972;7.640;2023-07-22T08:54:23;160.43;;;54.20;;
11835;SDS011;5977;51.972;7.640;2023-07-22T08:56:52;160.90;;;55.33;;
11835;SDS011;5977;51.972;7.640;2023-07-22T08:59:21;161.07;;;55.30;;
11835;SDS011;5977;51.972;7.640;2023-07-22T09:01:49;160.50;;;55.00;;
11835;SDS011;5977;51.972;7.640;2023-07-22T09:04:18;160.83;;;54.90;;
11835;SDS011;5977;51.972;7.640;2023-07-22T09:06:46;161.37;;;55.07;;
11835;SDS011;5977;51.972;7.640;2023-07-22T09:09:15;161.53;;;55.53;;
11835;SDS011;5977;51.972;7.640;2023-07-22T09:11:44;161.13;;;55.20;;
11835;SDS011;5977;51.972;7.640;2023-07-22T09:14:15;161.00;;;55.17;;
11835;SDS011;5977;51.972;7.640;2023-07-22T09:17:01;161.17;;;54.90;;
11835;SDS011;5977;51.972;7.640;2023-07-22T09:19:30;160.27;;;54.13;;
11835;SDS011;5977;51.972;7.640;2023-07-22T09:21:59;161.77;;;54.80;;
11835;SDS011;5977;51.972;7.640;2023-07-22T09:24:26;160.87;;;54.53;;
11835;SDS011;5977;51.972;7.640;2023-07-22T09:26:55;161.17;;;54.37;;
11835;SDS011;5977;51.972;7.640;2023-07-22T09:29:36;160.43;;;54.33;;
11835;SDS011;5977;51.972;7.640;2023-07-22T09:32:06;161.13;;;54.07;;
11835;SDS011;5977;51.972;7.640;2023-07-22T09:34:34;161.03;;;54.47;;
11835;SDS011;5977;51.972;7.640;2023-07-22T09:37:02;161.17;;;54.40;;
11835;SDS011;5977;51.972;7.640;2023-07-22T09:39:31;161.20;;;54.30;;
11835;SDS011;5977;51.972;7.640;2023-07-22T09:42:00;161.23;;;54.57;;
11835;SDS011;5977;51.972;7.640;2023-07-22T09:44:30;160.97;;;54.33;;
11835;SDS011;5977;51.972;7.640;2023-07-22T09:47:06;161.07;;;54.43;;
11835;SDS011;5977;51.972;7.640;2023-07-22T09:49:39;161.03;;;54.70;;
11835;SDS011;5977;51.972;7.640;2023-07-22T09:52:09;161.70;;;54.63;;
11835;SDS011;5977;51.972;7.640;2023-07-22T09:54:40;161.03;;;54.47;;
11835;SDS011;5977;51.972;7.640;2023-07-22T09:57:15;161.57;;;54.77;;
11835;SDS011;5977;51.972;7.640;2023-07-22T09:59:44;161.73;;;54.60;;
11835;SDS011;5977;51.972;7.640;2023-07-22T10:02:14;161.27;;;54.53;;
11835;SDS011;5977;51.972;7.640;2023-07-22T10:04:46;161.00;;;54.23;;
11835;SDS011;5977;51.972;7.640;2023-07-22T10:07:16;160.97;;;54.57;;
11835;SDS011;5977;51.972;7.640;2023-07-22T10:09:45;161.50;;;54.73;;
11835;SDS011;5977;51.972;7.640;2023-07-22T10:12:14;160.63;;;53.77;;
11835;SDS011;5977;51.972;7.640;2023-07-22T10:14:42;161.03;;;54.17;;
11835;SDS011;5977;51.972;7.640;2023-07-22T10:17:11;161.00;;;54.43;;
11835;SDS011;5977;51.972;7.640;2023-07-22T10:19:41;160.97;;;54.47;;
11835;SDS011;5977;51.972;7.640;2023-07-22T10:22:10;161.30;;;54.30;;
11835;SDS011;5977;51.972;7.640;2023-07-22T10:24:39;160.80;;;53.97;;
11835;SDS011;5977;51.972;7.640;2023-07-22T10:27:08;160.07;;;53.77;;
11835;SDS011;5977;51.972;7.640;2023-07-22T10:29:36;160.50;;;54.00;;
11835;SDS011;5977;51.972;7.640;2023-07-22T10:32:05;161.20;;;54.33;;
11835;SDS011;5977;51.972;7.640;2023-07-22T10:34:34;161.23;;;54.20;;
11835;SDS011;5977;51.972;7.640;2023-07-22T10:37:03;160.23;;;53.73;;
11835;SDS011;5977;51.972;7.640;2023-07-22T10:39:31;160.50;;;54.23;;
11835;SDS011;5977;51.972;7.640;2023-07-22T10:42:02;161.40;;;54.20;;
11835;SDS011;5977;51.972;7.640;2023-07-22T10:44:32;160.83;;;54.20;;
11835;SDS011;5977;51.972;7.640;2023-07-22T10:47:00;160.87;;;54.27;;
11835;SDS011;5977;51.972;7.640;2023-07-22T10:49:42;159.87;;;53.47;;
11835;SDS011;5977;51.972;7.640;2023-07-22T10:52:12;161.00;;;54.47;;
11835;SDS011;5977;51.972;7.640;2023-07-22T10:54:41;160.90;;;54.60;;
11835;SDS011;5977;51.972;7.640;2023-07-22T10:57:24;161.23;;;55.00;;
11835;SDS011;5977;51.972;7.640;2023-07-22T10:59:53;161.07;;;54.17;;
11835;SDS011;5977;51.972;7.640;2023-07-22T11:02:24;161.53;;;55.00;;
11835;SDS011;5977;51.972;7.640;2023-07-22T11:04:51;160.87;;;54.67;;
11835;SDS011;5977;51.972;7.640;2023-07-22T11:07:32;160.70;;;54.53;;
11835;SDS011;5977;51.972;7.640;2023-07-22T11:10:13;160.67;;;55.03;;
11835;SDS011;5977;51.972;7.640;2023-07-22T11:12:42;160.87;;;54.80;;
11835;SDS011;5977;51.972;7.640;2023-07-22T11:15:12;160.33;;;54.23;;
11835;SDS011;5977;51.972;7.640;2023-07-22T11:17:42;161.17;;;55.17;;
11835;SDS011;5977;51.972;7.640;2023-07-22T11:20:10;160.97;;;54.87;;
11835;SDS011;5977;51.972;7.640;2023-07-22T11:22:40;160.47;;;55.00;;
11835;SDS011;5977;51.972;7.640;2023-07-22T11:25:09;160.47;;;54.57;;
11835;SDS011;5977;51.972;7.640;2023-07-22T11:27:44;160.40;;;54.90;;
11835;SDS011;5977;51.972;7.640;2023-07-22T11:30:13;160.33;;;54.63;;
11835;SDS011;5977;51.972;7.640;2023-07-22T11:32:42;160.90;;;55.13;;
11835;SDS011;5977;51.972;7.640;2023-07-22T11:35:10;160.37;;;54.87;;
11835;SDS011;5977;51.972;7.640;2023-07-22T11:37:40;159.77;;;54.23;;
11835;SDS011;5977;51.972;7.640;2023-07-22T11:40:11;160.47;;;54.30;;
11835;SDS011;5977;51.972;7.640;2023-07-22T11:42:39;160.03;;;54.50;;
11835;SDS011;5977;51.972;7.640;2023-07-22T11:45:07;160.90;;;54.80;;
11835;SDS011;5977;51.972;7.640;2023-07-22T11:47:36;160.73;;;54.70;;
11835;SDS011;5977;51.972;7.640;2023-07-22T11:50:05;160.33;;;54.30;;
11835;SDS011;5977;51.972;7.640;2023-07-22T11:52:34;161.57;;;55.33;;
11835;SDS011;5977;51.972;7.640;2023-07-22T11:55:03;161.03;;;54.90;;
11835;SDS011;5977;51.972;7.640;2023-07-22T11:57:31;160.80;;;54.70;;
11835;SDS011;5977;51.972;7.640;2023-07-22T11:59:59;161.20;;;54.70;;
11835;SDS011;5977;51.972;7.640;2023-07-22T12:02:30;160.83;;;54.53;;
11835;SDS011;5977;51.972;7.640;2023-07-22T12:05:04;160.50;;;54.20;;
11835;SDS011;5977;51.972;7.640;2023-07-22T12:07:32;159.83;;;54.00;;
11835;SDS011;5977;51.972;7.640;2023-07-22T12:10:04;160.13;;;54.20;;
11835;SDS011;5977;51.972;7.640;2023-07-22T12:12:33;160.20;;;53.97;;
11835;SDS011;5977;51.972;7.640;2023-07-22T12:15:02;160.53;;;54.50;;
11835;SDS011;5977;51.972;7.640;2023-07-22T12:17:43;161.30;;;54.57;;
11835;SDS011;5977;51.972;7.640;2023-07-22T12:20:16;159.97;;;54.20;;
11835;SDS011;5977;51.972;7.640;2023-07-22T12:22:45;160.50;;;54.10;;
11835;SDS011;5977;51.972;7.640;2023-07-22T12:25:14;160.47;;;54.20;;
11835;SDS011;5977;51.972;7.640;2023-07-22T12:27:43;160.07;;;54.20;;
11835;SDS011;5977;51.972;7.640;2023-07-22T12:30:11;160.63;;;54.73;;
11835;SDS011;5977;51.972;7.640;2023-07-22T12:32:42;161.10;;;54.87;;
11835;SDS011;5977;51.972;7.640;2023-07-22T12:35:10;160.43;;;54.70;;
11835;SDS011;5977;51.972;7.640;2023-07-22T12:37:39;160.27;;;54.77;;
11835;SDS011;5977;51.972;7.640;2023-07-22T12:40:08;160.57;;;54.50;;
11835;SDS011;5977;51.972;7.640;2023-07-22T12:42:40;160.17;;;54.80;;
11835;SDS011;5977;51.972;7.640;2023-07-22T12:45:08;160.43;;;54.90;;
11835;SDS011;5977;51.972;7.640;2023-07-22T12:47:36;160.80;;;55.00;;
11835;SDS011;5977;51.972;7.640;2023-07-22T12:50:05;161.57;;;55.17;;
11835;SDS011;5977;51.972;7.640;2023-07-22T12:52:34;160.87;;;54.97;;
11835;SDS011;5977;51.972;7.640;2023-07-22T12:55:03;161.47;;;55.27;;
11835;SDS011;5977;51.972;7.640;2023-07-22T12:57:31;160.33;;;54.40;;
11835;SDS011;5977;51.972;7.640;2023-07-22T13:00:00;160.70;;;54.93;;
11835;SDS011;5977;51.972;7.640;2023-07-22T13:02:32;160.73;;;55.00;;
11835;SDS011;5977;51.972;7.640;2023-07-22T13:05:00;159.83;;;54.80;;
11835;SDS011;5977;51.972;7.640;2023-07-22T13:07:28;160.53;;;54.53;;
11835;SDS011;5977;51.972;7.640;2023-07-22T13:09:56;160.77;;;54.43;;
11835;SDS011;5977;51.972;7.640;2023-07-22T13:12:26;160.43;;;54.37;;
11835;SDS011;5977;51.972;7.640;2023-07-22T13:14:55;161.20;;;54.60;;
11835;SDS011;5977;51.972;7.640;2023-07-22T13:17:24;160.40;;;54.50;;
11835;SDS011;5977;51.972;7.640;2023-07-22T13:19:53;159.30;;;53.47;;
11835;SDS011;5977;51.972;7.640;2023-07-22T13:22:21;160.10;;;53.67;;
11835;SDS011;5977;51.972;7.640;2023-07-22T13:24:48;159.90;;;53.97;;
11835;SDS011;5977;51.972;7.640;2023-07-22T13:27:16;159.63;;;53.77;;
11835;SDS011;5977;51.972;7.640;2023-07-22T13:29:44;160.90;;;55.17;;
11835;SDS011;5977;51.972;7.640;2023-07-22T13:32:12;160.73;;;54.87;;
11835;SDS011;5977;51.972;7.640;2023-07-22T13:34:42;160.60;;;54.80;;
11835;SDS011;5977;51.972;7.640;2023-07-22T13:37:10;160.53;;;55.00;;
11835;SDS011;5977;51.972;7.640;2023-07-22T13:39:38;160.43;;;54.90;;
11835;SDS011;5977;51.972;7.640;2023-07-22T13:42:06;160.23;;;54.77;;
11835;SDS011;5977;51.972;7.640;2023-07-22T13:44:34;159.77;;;54.13;;
11835;SDS011;5977;51.972;7.640;2023-07-22T13:47:05;160.87;;;55.00;;
11835;SDS011;5977;51.972;7.640;2023-07-22T13:49:33;160.50;;;54.63;;
11835;SDS011;5977;51.972;7.640;2023-07-22T13:52:03;160.80;;;55.37;;
11835;SDS011;5977;51.972;7.640;2023-07-22T13:54:31;159.83;;;54.47;;
11835;SDS011;5977;51.972;7.640;2023-07-22T13:56:59;160.60;;;54.80;;
11835;SDS011;5977;51.972;7.640;2023-07-22T13:59:27;160.23;;;54.70;;
11835;SDS011;5977;51.972;7.640;2023-07-22T14:01:57;160.43;;;54.80;;
11835;SDS011;5977;51.972;7.640;2023-07-22T14:04:25;160.70;;;55.07;;
11835;SDS011;5977;51.972;7.640;2023-07-22T14:06:53;160.67;;;55.23;;
11835;SDS011;5977;51.972;7.640;2023-07-22T14:09:22;160.37;;;55.03;;
11835;SDS011;5977;51.972;7.640;2023-07-22T14:11:53;160.20;;;54.77;;
11835;SDS011;5977;51.972;7.640;2023-07-22T14:14:21;160.53;;;54.80;;
11835;SDS011;5977;51.972;7.640;2023-07-22T14:16:54;161.17;;;55.00;;
11835;SDS011;5977;51.972;7.640;2023-07-22T14:19:23;160.80;;;55.03;;
11835;SDS011;5977;51.972;7.640;2023-07-22T14:21:51;160.23;;;54.50;;
11835;SDS011;5977;51.972;7.640;2023-07-22T14:24:19;160.80;;;55.20;;
11835;SDS011;5977;51.972;7.640;2023-07-22T14:26:49;160.47;;;54.93;;
11835;SDS011;5977;51.972;7.640;2023-07-22T14:29:17;159.80;;;54.50;;
11835;SDS011;5977;51.972;7.640;2023-07-22T14:31:44;161.77;;;55.47;;
11835;SDS011;5977;51.972;7.640;2023-07-22T14:34:13;160.40;;;54.80;;
11835;SDS011;5977;51.972;7.640;2023-07-22T14:36:41;160.43;;;54.70;;